sensor_id;sensor_type;location;lat;lon;timestamp;P1;durP1;ratioP1;P2;durP2;ratioP2
37955;SDS011;23776;51.592;7.180;2023-03-03T00:02:20;57.45;;;21.05;;
37955;SDS011;23776;51.592;7.180;2023-03-03T00:04:46;59.83;;;23.55;;
37955;SDS011;23776;51.592;7.180;2023-03-03T00:07:11;57.03;;;21.15;;
37955;SDS011;23776;51.592;7.180;2023-03-03T00:09:39;57.25;;;21.38;;
37955;SDS011;23776;51.592;7.180;2023-03-03T00:12:18;52.80;;;20.05;;
37955;SDS011;23776;51.592;7.180;2023-03-03T00:14:49;52.72;;;19.55;;
37955;SDS011;23776;51.592;7.180;2023-03-03T00:17:33;54.05;;;19.98;;
37955;SDS011;23776;51.592;7.180;2023-03-03T00:22:30;52.83;;;19.38;;
37955;SDS011;23776;51.592;7.180;2023-03-03T00:25:20;52.92;;;20.38;;
37955;SDS011;23776;51.592;7.180;2023-03-03T00:27:49;54.20;;;20.80;;
37955;SDS011;23776;51.592;7.180;2023-03-03T00:30:32;54.28;;;20.92;;
37955;SDS011;23776;51.592;7.180;2023-03-03T00:32:58;58.42;;;21.13;;
37955;SDS011;23776;51.592;7.180;2023-03-03T00:35:30;57.25;;;20.92;;
37955;SDS011;23776;51.592;7.180;2023-03-03T00:40:59;58.60;;;19.85;;
37955;SDS011;23776;51.592;7.180;2023-03-03T00:43:27;54.15;;;19.55;;
37955;SDS011;23776;51.592;7.180;2023-03-03T00:45:59;53.83;;;20.33;;
37955;SDS011;23776;51.592;7.180;2023-03-03T00:51:00;55.40;;;21.55;;
37955;SDS011;23776;51.592;7.180;2023-03-03T00:53:34;46.47;;;19.60;;
37955;SDS011;23776;51.592;7.180;2023-03-03T00:56:00;60.85;;;21.27;;
37955;SDS011;23776;51.592;7.180;2023-03-03T00:58:26;61.45;;;21.17;;
37955;SDS011;23776;51.592;7.180;2023-03-03T01:00:52;52.53;;;20.17;;
37955;SDS011;23776;51.592;7.180;2023-03-03T01:03:21;52.25;;;19.95;;
37955;SDS011;23776;51.592;7.180;2023-03-03T01:05:48;52.65;;;19.52;;
37955;SDS011;23776;51.592;7.180;2023-03-03T01:08:15;47.13;;;18.88;;
37955;SDS011;23776;51.592;7.180;2023-03-03T01:10:43;49.10;;;18.70;;
37955;SDS011;23776;51.592;7.180;2023-03-03T01:13:14;50.47;;;19.60;;
37955;SDS011;23776;51.592;7.180;2023-03-03T01:15:40;52.08;;;19.98;;
37955;SDS011;23776;51.592;7.180;2023-03-03T01:18:07;54.13;;;20.70;;
37955;SDS011;23776;51.592;7.180;2023-03-03T01:20:35;49.30;;;18.75;;
37955;SDS011;23776;51.592;7.180;2023-03-03T01:23:01;50.05;;;18.85;;
37955;SDS011;23776;51.592;7.180;2023-03-03T01:25:26;51.67;;;18.52;;
37955;SDS011;23776;51.592;7.180;2023-03-03T01:27:52;56.70;;;18.85;;
37955;SDS011;23776;51.592;7.180;2023-03-03T01:30:18;49.83;;;19.75;;
37955;SDS011;23776;51.592;7.180;2023-03-03T01:32:44;56.17;;;20.52;;
37955;SDS011;23776;51.592;7.180;2023-03-03T01:35:10;51.85;;;18.30;;
37955;SDS011;23776;51.592;7.180;2023-03-03T01:37:36;59.65;;;20.77;;
37955;SDS011;23776;51.592;7.180;2023-03-03T01:40:03;52.42;;;19.38;;
37955;SDS011;23776;51.592;7.180;2023-03-03T01:42:31;51.30;;;18.92;;
37955;SDS011;23776;51.592;7.180;2023-03-03T01:47:42;54.30;;;19.42;;
37955;SDS011;23776;51.592;7.180;2023-03-03T01:50:18;54.35;;;19.02;;
37955;SDS011;23776;51.592;7.180;2023-03-03T01:52:51;56.55;;;21.33;;
37955;SDS011;23776;51.592;7.180;2023-03-03T01:55:21;62.15;;;20.35;;
37955;SDS011;23776;51.592;7.180;2023-03-03T01:57:54;61.72;;;20.75;;
37955;SDS011;23776;51.592;7.180;2023-03-03T02:00:25;61.63;;;21.42;;
37955;SDS011;23776;51.592;7.180;2023-03-03T02:02:52;51.60;;;19.77;;
37955;SDS011;23776;51.592;7.180;2023-03-03T02:05:18;54.38;;;19.23;;
37955;SDS011;23776;51.592;7.180;2023-03-03T02:07:44;56.53;;;20.25;;
37955;SDS011;23776;51.592;7.180;2023-03-03T02:10:12;50.70;;;19.60;;
37955;SDS011;23776;51.592;7.180;2023-03-03T02:12:41;59.33;;;19.33;;
37955;SDS011;23776;51.592;7.180;2023-03-03T02:15:18;51.90;;;19.40;;
37955;SDS011;23776;51.592;7.180;2023-03-03T02:17:54;54.45;;;19.08;;
37955;SDS011;23776;51.592;7.180;2023-03-03T02:23:25;56.45;;;18.60;;
37955;SDS011;23776;51.592;7.180;2023-03-03T02:26:05;62.80;;;20.55;;
37955;SDS011;23776;51.592;7.180;2023-03-03T02:28:32;60.97;;;21.05;;
37955;SDS011;23776;51.592;7.180;2023-03-03T02:30:59;59.95;;;20.17;;
37955;SDS011;23776;51.592;7.180;2023-03-03T02:33:26;58.28;;;19.92;;
37955;SDS011;23776;51.592;7.180;2023-03-03T02:35:53;59.97;;;20.65;;
37955;SDS011;23776;51.592;7.180;2023-03-03T02:38:20;58.17;;;19.67;;
37955;SDS011;23776;51.592;7.180;2023-03-03T02:43:57;54.63;;;19.55;;
37955;SDS011;23776;51.592;7.180;2023-03-03T02:46:23;49.55;;;19.63;;
37955;SDS011;23776;51.592;7.180;2023-03-03T02:48:48;54.83;;;19.70;;
37955;SDS011;23776;51.592;7.180;2023-03-03T02:51:14;56.55;;;20.80;;
37955;SDS011;23776;51.592;7.180;2023-03-03T02:53:40;66.35;;;21.38;;
37955;SDS011;23776;51.592;7.180;2023-03-03T02:56:06;55.85;;;20.13;;
37955;SDS011;23776;51.592;7.180;2023-03-03T02:58:33;53.42;;;18.58;;
37955;SDS011;23776;51.592;7.180;2023-03-03T03:00:59;53.15;;;17.88;;
37955;SDS011;23776;51.592;7.180;2023-03-03T03:03:25;53.60;;;19.35;;
37955;SDS011;23776;51.592;7.180;2023-03-03T03:05:51;52.58;;;18.80;;
37955;SDS011;23776;51.592;7.180;2023-03-03T03:08:16;47.72;;;18.50;;
37955;SDS011;23776;51.592;7.180;2023-03-03T03:10:42;53.50;;;18.90;;
37955;SDS011;23776;51.592;7.180;2023-03-03T03:13:08;46.92;;;17.88;;
37955;SDS011;23776;51.592;7.180;2023-03-03T03:15:34;53.40;;;19.85;;
37955;SDS011;23776;51.592;7.180;2023-03-03T03:18:00;52.67;;;19.00;;
37955;SDS011;23776;51.592;7.180;2023-03-03T03:20:26;57.55;;;19.65;;
37955;SDS011;23776;51.592;7.180;2023-03-03T03:22:51;55.97;;;19.55;;
37955;SDS011;23776;51.592;7.180;2023-03-03T03:25:17;50.13;;;18.38;;
37955;SDS011;23776;51.592;7.180;2023-03-03T03:27:43;47.53;;;17.02;;
37955;SDS011;23776;51.592;7.180;2023-03-03T03:30:08;48.05;;;19.00;;
37955;SDS011;23776;51.592;7.180;2023-03-03T03:32:34;48.92;;;17.67;;
37955;SDS011;23776;51.592;7.180;2023-03-03T03:35:00;53.63;;;18.40;;
37955;SDS011;23776;51.592;7.180;2023-03-03T03:37:26;54.00;;;17.67;;
37955;SDS011;23776;51.592;7.180;2023-03-03T03:39:52;50.72;;;18.85;;
37955;SDS011;23776;51.592;7.180;2023-03-03T03:42:18;53.47;;;18.75;;
37955;SDS011;23776;51.592;7.180;2023-03-03T03:44:43;48.92;;;20.00;;
37955;SDS011;23776;51.592;7.180;2023-03-03T03:47:09;50.30;;;19.33;;
37955;SDS011;23776;51.592;7.180;2023-03-03T03:49:35;49.03;;;18.25;;
37955;SDS011;23776;51.592;7.180;2023-03-03T03:52:00;52.78;;;18.55;;
37955;SDS011;23776;51.592;7.180;2023-03-03T03:54:26;45.22;;;15.88;;
37955;SDS011;23776;51.592;7.180;2023-03-03T03:56:52;43.50;;;18.00;;
37955;SDS011;23776;51.592;7.180;2023-03-03T03:59:18;47.00;;;18.95;;
37955;SDS011;23776;51.592;7.180;2023-03-03T04:01:44;56.70;;;19.80;;
37955;SDS011;23776;51.592;7.180;2023-03-03T04:04:12;49.38;;;17.77;;
37955;SDS011;23776;51.592;7.180;2023-03-03T04:06:38;57.20;;;19.80;;
37955;SDS011;23776;51.592;7.180;2023-03-03T04:09:03;61.33;;;21.08;;
37955;SDS011;23776;51.592;7.180;2023-03-03T04:11:29;66.10;;;21.05;;
37955;SDS011;23776;51.592;7.180;2023-03-03T04:13:55;67.18;;;21.35;;
37955;SDS011;23776;51.592;7.180;2023-03-03T04:16:20;59.25;;;19.98;;
37955;SDS011;23776;51.592;7.180;2023-03-03T04:18:46;60.10;;;21.45;;
37955;SDS011;23776;51.592;7.180;2023-03-03T04:21:12;56.60;;;19.80;;
37955;SDS011;23776;51.592;7.180;2023-03-03T04:23:39;71.90;;;22.45;;
37955;SDS011;23776;51.592;7.180;2023-03-03T04:26:05;67.70;;;22.80;;
37955;SDS011;23776;51.592;7.180;2023-03-03T04:28:31;78.03;;;21.85;;
37955;SDS011;23776;51.592;7.180;2023-03-03T04:30:56;76.18;;;22.33;;
37955;SDS011;23776;51.592;7.180;2023-03-03T04:33:22;83.38;;;24.15;;
37955;SDS011;23776;51.592;7.180;2023-03-03T04:35:47;69.57;;;23.08;;
37955;SDS011;23776;51.592;7.180;2023-03-03T04:38:13;75.38;;;22.65;;
37955;SDS011;23776;51.592;7.180;2023-03-03T04:40:40;72.05;;;22.95;;
37955;SDS011;23776;51.592;7.180;2023-03-03T04:43:06;74.00;;;22.42;;
37955;SDS011;23776;51.592;7.180;2023-03-03T04:45:31;82.95;;;26.58;;
37955;SDS011;23776;51.592;7.180;2023-03-03T04:47:57;75.93;;;23.30;;
37955;SDS011;23776;51.592;7.180;2023-03-03T04:50:22;77.22;;;23.75;;
37955;SDS011;23776;51.592;7.180;2023-03-03T04:52:48;80.43;;;26.63;;
37955;SDS011;23776;51.592;7.180;2023-03-03T04:55:14;74.80;;;23.92;;
37955;SDS011;23776;51.592;7.180;2023-03-03T04:57:40;84.85;;;24.92;;
37955;SDS011;23776;51.592;7.180;2023-03-03T05:00:06;74.70;;;22.67;;
37955;SDS011;23776;51.592;7.180;2023-03-03T05:02:33;86.82;;;24.90;;
37955;SDS011;23776;51.592;7.180;2023-03-03T05:04:59;79.05;;;24.75;;
37955;SDS011;23776;51.592;7.180;2023-03-03T05:07:25;74.25;;;23.60;;
37955;SDS011;23776;51.592;7.180;2023-03-03T05:09:50;75.93;;;24.38;;
37955;SDS011;23776;51.592;7.180;2023-03-03T05:12:16;82.25;;;25.02;;
37955;SDS011;23776;51.592;7.180;2023-03-03T05:14:42;81.47;;;26.33;;
37955;SDS011;23776;51.592;7.180;2023-03-03T05:17:07;76.45;;;24.48;;
37955;SDS011;23776;51.592;7.180;2023-03-03T05:19:33;80.38;;;24.92;;
37955;SDS011;23776;51.592;7.180;2023-03-03T05:21:59;76.13;;;23.08;;
37955;SDS011;23776;51.592;7.180;2023-03-03T05:24:26;83.05;;;25.45;;
37955;SDS011;23776;51.592;7.180;2023-03-03T05:26:51;87.70;;;25.20;;
37955;SDS011;23776;51.592;7.180;2023-03-03T05:29:17;81.88;;;23.75;;
37955;SDS011;23776;51.592;7.180;2023-03-03T05:31:44;78.18;;;24.77;;
37955;SDS011;23776;51.592;7.180;2023-03-03T05:34:09;82.40;;;24.13;;
37955;SDS011;23776;51.592;7.180;2023-03-03T05:36:35;85.78;;;24.67;;
37955;SDS011;23776;51.592;7.180;2023-03-03T05:39:00;78.93;;;25.27;;
37955;SDS011;23776;51.592;7.180;2023-03-03T05:41:26;81.60;;;23.63;;
37955;SDS011;23776;51.592;7.180;2023-03-03T05:43:52;84.00;;;23.60;;
37955;SDS011;23776;51.592;7.180;2023-03-03T05:46:18;75.82;;;23.42;;
37955;SDS011;23776;51.592;7.180;2023-03-03T05:48:44;84.63;;;25.63;;
37955;SDS011;23776;51.592;7.180;2023-03-03T05:51:10;74.60;;;23.98;;
37955;SDS011;23776;51.592;7.180;2023-03-03T05:53:35;80.97;;;24.35;;
37955;SDS011;23776;51.592;7.180;2023-03-03T05:56:01;75.60;;;23.45;;
37955;SDS011;23776;51.592;7.180;2023-03-03T05:58:27;77.80;;;24.00;;
37955;SDS011;23776;51.592;7.180;2023-03-03T06:00:53;77.53;;;24.83;;
37955;SDS011;23776;51.592;7.180;2023-03-03T06:03:19;80.70;;;24.38;;
37955;SDS011;23776;51.592;7.180;2023-03-03T06:05:44;89.72;;;24.60;;
37955;SDS011;23776;51.592;7.180;2023-03-03T06:08:10;85.60;;;26.40;;
37955;SDS011;23776;51.592;7.180;2023-03-03T06:10:35;101.38;;;26.20;;
37955;SDS011;23776;51.592;7.180;2023-03-03T06:13:01;85.57;;;24.05;;
37955;SDS011;23776;51.592;7.180;2023-03-03T06:15:27;84.28;;;25.73;;
37955;SDS011;23776;51.592;7.180;2023-03-03T06:17:53;78.05;;;24.70;;
37955;SDS011;23776;51.592;7.180;2023-03-03T06:20:18;85.18;;;25.80;;
37955;SDS011;23776;51.592;7.180;2023-03-03T06:22:44;84.38;;;22.02;;
37955;SDS011;23776;51.592;7.180;2023-03-03T06:25:09;94.50;;;25.55;;
37955;SDS011;23776;51.592;7.180;2023-03-03T06:27:35;81.68;;;24.77;;
37955;SDS011;23776;51.592;7.180;2023-03-03T06:30:01;75.53;;;23.23;;
37955;SDS011;23776;51.592;7.180;2023-03-03T06:32:27;77.30;;;22.08;;
37955;SDS011;23776;51.592;7.180;2023-03-03T06:34:53;79.78;;;23.83;;
37955;SDS011;23776;51.592;7.180;2023-03-03T06:37:19;79.97;;;23.55;;
37955;SDS011;23776;51.592;7.180;2023-03-03T06:39:44;92.85;;;25.33;;
37955;SDS011;23776;51.592;7.180;2023-03-03T06:42:10;83.32;;;24.70;;
37955;SDS011;23776;51.592;7.180;2023-03-03T06:44:35;87.57;;;24.92;;
37955;SDS011;23776;51.592;7.180;2023-03-03T06:47:01;84.82;;;25.45;;
37955;SDS011;23776;51.592;7.180;2023-03-03T06:49:27;80.43;;;23.75;;
37955;SDS011;23776;51.592;7.180;2023-03-03T06:51:52;80.97;;;25.13;;
37955;SDS011;23776;51.592;7.180;2023-03-03T06:54:20;89.47;;;26.15;;
37955;SDS011;23776;51.592;7.180;2023-03-03T06:56:51;88.95;;;25.45;;
37955;SDS011;23776;51.592;7.180;2023-03-03T06:59:20;87.18;;;25.55;;
37955;SDS011;23776;51.592;7.180;2023-03-03T07:01:47;76.43;;;22.95;;
37955;SDS011;23776;51.592;7.180;2023-03-03T07:06:53;86.15;;;23.02;;
37955;SDS011;23776;51.592;7.180;2023-03-03T07:09:21;79.97;;;24.48;;
37955;SDS011;23776;51.592;7.180;2023-03-03T07:12:00;75.75;;;22.08;;
37955;SDS011;23776;51.592;7.180;2023-03-03T07:14:30;84.45;;;24.48;;
37955;SDS011;23776;51.592;7.180;2023-03-03T07:16:58;80.22;;;23.73;;
37955;SDS011;23776;51.592;7.180;2023-03-03T07:19:34;89.38;;;24.50;;
37955;SDS011;23776;51.592;7.180;2023-03-03T07:24:43;81.53;;;25.00;;
37955;SDS011;23776;51.592;7.180;2023-03-03T07:27:20;82.53;;;24.70;;
37955;SDS011;23776;51.592;7.180;2023-03-03T07:29:49;88.50;;;25.13;;
37955;SDS011;23776;51.592;7.180;2023-03-03T07:34:57;78.38;;;22.98;;
37955;SDS011;23776;51.592;7.180;2023-03-03T07:37:35;86.93;;;23.95;;
37955;SDS011;23776;51.592;7.180;2023-03-03T07:40:24;84.47;;;25.65;;
37955;SDS011;23776;51.592;7.180;2023-03-03T07:43:20;77.65;;;22.00;;
37955;SDS011;23776;51.592;7.180;2023-03-03T07:46:02;87.40;;;24.95;;
37955;SDS011;23776;51.592;7.180;2023-03-03T07:48:40;73.43;;;23.30;;
37955;SDS011;23776;51.592;7.180;2023-03-03T07:53:52;81.78;;;24.98;;
37955;SDS011;23776;51.592;7.180;2023-03-03T07:58:47;84.65;;;27.27;;
37955;SDS011;23776;51.592;7.180;2023-03-03T08:04:21;82.30;;;23.25;;
37955;SDS011;23776;51.592;7.180;2023-03-03T08:06:58;83.32;;;26.60;;
37955;SDS011;23776;51.592;7.180;2023-03-03T08:09:29;74.95;;;22.48;;
37955;SDS011;23776;51.592;7.180;2023-03-03T08:14:51;69.65;;;21.13;;
37955;SDS011;23776;51.592;7.180;2023-03-03T08:17:20;69.82;;;23.25;;
37955;SDS011;23776;51.592;7.180;2023-03-03T08:19:48;72.30;;;22.77;;
37955;SDS011;23776;51.592;7.180;2023-03-03T08:22:19;82.50;;;26.52;;
37955;SDS011;23776;51.592;7.180;2023-03-03T08:24:55;73.82;;;22.00;;
37955;SDS011;23776;51.592;7.180;2023-03-03T08:27:20;86.47;;;24.38;;
37955;SDS011;23776;51.592;7.180;2023-03-03T08:29:46;78.28;;;23.50;;
37955;SDS011;23776;51.592;7.180;2023-03-03T08:32:14;88.85;;;26.17;;
37955;SDS011;23776;51.592;7.180;2023-03-03T08:34:39;82.35;;;24.25;;
37955;SDS011;23776;51.592;7.180;2023-03-03T08:37:05;83.82;;;26.63;;
37955;SDS011;23776;51.592;7.180;2023-03-03T08:39:31;79.60;;;22.67;;
37955;SDS011;23776;51.592;7.180;2023-03-03T08:41:56;80.55;;;23.17;;
37955;SDS011;23776;51.592;7.180;2023-03-03T08:44:22;79.32;;;22.75;;
37955;SDS011;23776;51.592;7.180;2023-03-03T08:46:48;67.95;;;21.92;;
37955;SDS011;23776;51.592;7.180;2023-03-03T08:49:14;64.68;;;21.38;;
37955;SDS011;23776;51.592;7.180;2023-03-03T08:51:39;54.42;;;16.75;;
37955;SDS011;23776;51.592;7.180;2023-03-03T08:54:05;54.17;;;16.48;;
37955;SDS011;23776;51.592;7.180;2023-03-03T08:56:31;49.70;;;16.27;;
37955;SDS011;23776;51.592;7.180;2023-03-03T08:58:56;44.38;;;16.00;;
37955;SDS011;23776;51.592;7.180;2023-03-03T09:01:22;52.03;;;16.95;;
37955;SDS011;23776;51.592;7.180;2023-03-03T09:03:47;58.00;;;16.20;;
37955;SDS011;23776;51.592;7.180;2023-03-03T09:06:13;43.13;;;15.05;;
37955;SDS011;23776;51.592;7.180;2023-03-03T09:08:39;48.85;;;15.60;;
37955;SDS011;23776;51.592;7.180;2023-03-03T09:11:08;50.55;;;15.75;;
37955;SDS011;23776;51.592;7.180;2023-03-03T09:13:37;43.75;;;14.30;;
37955;SDS011;23776;51.592;7.180;2023-03-03T09:16:10;46.53;;;15.00;;
37955;SDS011;23776;51.592;7.180;2023-03-03T09:18:38;41.92;;;14.50;;
37955;SDS011;23776;51.592;7.180;2023-03-03T09:21:18;58.78;;;16.10;;
37955;SDS011;23776;51.592;7.180;2023-03-03T09:23:56;50.08;;;15.32;;
37955;SDS011;23776;51.592;7.180;2023-03-03T09:28:52;50.78;;;15.57;;
37955;SDS011;23776;51.592;7.180;2023-03-03T09:33:52;49.70;;;14.87;;
37955;SDS011;23776;51.592;7.180;2023-03-03T09:36:37;45.25;;;15.52;;
37955;SDS011;23776;51.592;7.180;2023-03-03T09:39:22;50.33;;;14.82;;
37955;SDS011;23776;51.592;7.180;2023-03-03T09:44:29;47.30;;;13.60;;
37955;SDS011;23776;51.592;7.180;2023-03-03T09:55:49;52.35;;;15.05;;
37955;SDS011;23776;51.592;7.180;2023-03-03T10:01:32;41.15;;;13.45;;
37955;SDS011;23776;51.592;7.180;2023-03-03T10:04:21;39.75;;;13.60;;
37955;SDS011;23776;51.592;7.180;2023-03-03T10:12:11;46.88;;;13.50;;
37955;SDS011;23776;51.592;7.180;2023-03-03T10:14:48;41.97;;;13.45;;
37955;SDS011;23776;51.592;7.180;2023-03-03T10:17:33;46.17;;;13.40;;
37955;SDS011;23776;51.592;7.180;2023-03-03T10:20:31;40.30;;;13.68;;
37955;SDS011;23776;51.592;7.180;2023-03-03T10:23:20;47.30;;;13.13;;
37955;SDS011;23776;51.592;7.180;2023-03-03T10:29:23;42.53;;;13.73;;
37955;SDS011;23776;51.592;7.180;2023-03-03T10:40:46;43.35;;;13.98;;
37955;SDS011;23776;51.592;7.180;2023-03-03T10:43:29;45.75;;;14.52;;
37955;SDS011;23776;51.592;7.180;2023-03-03T10:59:41;50.28;;;15.50;;
37955;SDS011;23776;51.592;7.180;2023-03-03T11:06:04;49.28;;;14.02;;
37955;SDS011;23776;51.592;7.180;2023-03-03T11:08:35;41.28;;;14.30;;
37955;SDS011;23776;51.592;7.180;2023-03-03T11:17:03;46.38;;;16.27;;
37955;SDS011;23776;51.592;7.180;2023-03-03T11:19:33;48.75;;;16.17;;
37955;SDS011;23776;51.592;7.180;2023-03-03T11:24:49;43.67;;;15.57;;
37955;SDS011;23776;51.592;7.180;2023-03-03T11:33:15;47.00;;;15.43;;
37955;SDS011;23776;51.592;7.180;2023-03-03T11:36:08;49.38;;;16.33;;
37955;SDS011;23776;51.592;7.180;2023-03-03T11:38:53;43.53;;;14.32;;
37955;SDS011;23776;51.592;7.180;2023-03-03T11:41:30;49.95;;;14.43;;
37955;SDS011;23776;51.592;7.180;2023-03-03T11:44:04;42.47;;;14.85;;
37955;SDS011;23776;51.592;7.180;2023-03-03T11:46:49;35.13;;;13.20;;
37955;SDS011;23776;51.592;7.180;2023-03-03T11:49:46;41.88;;;12.45;;
37955;SDS011;23776;51.592;7.180;2023-03-03T11:52:27;42.88;;;12.27;;
37955;SDS011;23776;51.592;7.180;2023-03-03T12:04:12;42.15;;;14.52;;
37955;SDS011;23776;51.592;7.180;2023-03-03T12:12:35;40.22;;;13.63;;
37955;SDS011;23776;51.592;7.180;2023-03-03T12:20:44;41.58;;;13.77;;
37955;SDS011;23776;51.592;7.180;2023-03-03T12:28:51;34.22;;;11.50;;
37955;SDS011;23776;51.592;7.180;2023-03-03T12:31:44;42.95;;;15.38;;
37955;SDS011;23776;51.592;7.180;2023-03-03T12:34:18;115.38;;;50.15;;
37955;SDS011;23776;51.592;7.180;2023-03-03T12:42:26;35.53;;;12.82;;
37955;SDS011;23776;51.592;7.180;2023-03-03T12:45:00;34.20;;;11.98;;
37955;SDS011;23776;51.592;7.180;2023-03-03T12:47:45;36.40;;;12.35;;
37955;SDS011;23776;51.592;7.180;2023-03-03T12:53:45;33.00;;;11.45;;
37955;SDS011;23776;51.592;7.180;2023-03-03T12:56:29;35.97;;;12.63;;
37955;SDS011;23776;51.592;7.180;2023-03-03T12:58:59;32.28;;;12.32;;
37955;SDS011;23776;51.592;7.180;2023-03-03T13:01:32;29.75;;;11.57;;
37955;SDS011;23776;51.592;7.180;2023-03-03T13:09:54;32.10;;;11.48;;
37955;SDS011;23776;51.592;7.180;2023-03-03T13:15:33;37.90;;;14.02;;
37955;SDS011;23776;51.592;7.180;2023-03-03T13:21:00;29.67;;;10.75;;
37955;SDS011;23776;51.592;7.180;2023-03-03T13:23:40;30.58;;;11.45;;
37955;SDS011;23776;51.592;7.180;2023-03-03T13:26:34;27.27;;;10.48;;
37955;SDS011;23776;51.592;7.180;2023-03-03T13:29:26;30.58;;;11.82;;
37955;SDS011;23776;51.592;7.180;2023-03-03T13:32:07;29.90;;;11.43;;
37955;SDS011;23776;51.592;7.180;2023-03-03T13:42:39;28.45;;;11.43;;
37955;SDS011;23776;51.592;7.180;2023-03-03T13:45:24;32.10;;;11.70;;
37955;SDS011;23776;51.592;7.180;2023-03-03T13:50:42;27.42;;;10.68;;
37955;SDS011;23776;51.592;7.180;2023-03-03T13:53:21;28.90;;;10.82;;
37955;SDS011;23776;51.592;7.180;2023-03-03T13:55:59;28.83;;;11.47;;
37955;SDS011;23776;51.592;7.180;2023-03-03T13:59:04;28.30;;;11.38;;
37955;SDS011;23776;51.592;7.180;2023-03-03T14:02:07;29.63;;;12.98;;
37955;SDS011;23776;51.592;7.180;2023-03-03T14:04:52;29.80;;;11.77;;
37955;SDS011;23776;51.592;7.180;2023-03-03T14:10:24;27.23;;;10.63;;
37955;SDS011;23776;51.592;7.180;2023-03-03T14:13:15;30.13;;;11.68;;
37955;SDS011;23776;51.592;7.180;2023-03-03T14:15:53;25.40;;;11.05;;
37955;SDS011;23776;51.592;7.180;2023-03-03T14:21:04;28.45;;;11.25;;
37955;SDS011;23776;51.592;7.180;2023-03-03T14:26:15;26.65;;;10.18;;
37955;SDS011;23776;51.592;7.180;2023-03-03T14:28:45;29.83;;;11.63;;
37955;SDS011;23776;51.592;7.180;2023-03-03T14:33:59;28.55;;;10.68;;
37955;SDS011;23776;51.592;7.180;2023-03-03T14:36:29;29.13;;;10.88;;
37955;SDS011;23776;51.592;7.180;2023-03-03T14:38:56;32.83;;;12.13;;
37955;SDS011;23776;51.592;7.180;2023-03-03T14:41:36;29.52;;;11.65;;
37955;SDS011;23776;51.592;7.180;2023-03-03T14:44:24;30.95;;;12.13;;
37955;SDS011;23776;51.592;7.180;2023-03-03T14:47:02;35.90;;;11.63;;
37955;SDS011;23776;51.592;7.180;2023-03-03T14:49:34;29.90;;;11.20;;
37955;SDS011;23776;51.592;7.180;2023-03-03T14:54:43;36.08;;;13.27;;
37955;SDS011;23776;51.592;7.180;2023-03-03T15:05:52;31.10;;;11.82;;
37955;SDS011;23776;51.592;7.180;2023-03-03T15:08:29;29.88;;;11.73;;
37955;SDS011;23776;51.592;7.180;2023-03-03T15:11:10;34.55;;;12.07;;
37955;SDS011;23776;51.592;7.180;2023-03-03T15:13:41;27.38;;;10.77;;
37955;SDS011;23776;51.592;7.180;2023-03-03T15:16:09;30.77;;;12.10;;
37955;SDS011;23776;51.592;7.180;2023-03-03T15:18:53;32.37;;;12.53;;
37955;SDS011;23776;51.592;7.180;2023-03-03T15:21:53;35.80;;;12.75;;
37955;SDS011;23776;51.592;7.180;2023-03-03T15:24:48;31.25;;;11.43;;
37955;SDS011;23776;51.592;7.180;2023-03-03T15:27:28;34.35;;;12.63;;
37955;SDS011;23776;51.592;7.180;2023-03-03T15:38:54;31.65;;;11.65;;
37955;SDS011;23776;51.592;7.180;2023-03-03T15:41:33;34.95;;;11.63;;
37955;SDS011;23776;51.592;7.180;2023-03-03T15:45:13;31.42;;;12.15;;
37955;SDS011;23776;51.592;7.180;2023-03-03T15:47:10;37.70;;;12.52;;
37955;SDS011;23776;51.592;7.180;2023-03-03T15:55:26;36.55;;;13.38;;
37955;SDS011;23776;51.592;7.180;2023-03-03T16:03:58;32.53;;;11.77;;
37955;SDS011;23776;51.592;7.180;2023-03-03T16:06:30;27.15;;;12.02;;
37955;SDS011;23776;51.592;7.180;2023-03-03T16:14:42;35.67;;;12.82;;
37955;SDS011;23776;51.592;7.180;2023-03-03T16:17:18;33.20;;;13.52;;
37955;SDS011;23776;51.592;7.180;2023-03-03T16:22:40;38.53;;;12.85;;
37955;SDS011;23776;51.592;7.180;2023-03-03T16:25:41;40.20;;;13.27;;
37955;SDS011;23776;51.592;7.180;2023-03-03T16:31:28;40.97;;;15.02;;
37955;SDS011;23776;51.592;7.180;2023-03-03T16:34:11;37.35;;;15.55;;
37955;SDS011;23776;51.592;7.180;2023-03-03T16:42:44;37.45;;;14.00;;
37955;SDS011;23776;51.592;7.180;2023-03-03T16:45:17;36.80;;;14.02;;
37955;SDS011;23776;51.592;7.180;2023-03-03T16:54:14;41.05;;;14.93;;
37955;SDS011;23776;51.592;7.180;2023-03-03T16:56:43;40.80;;;15.05;;
37955;SDS011;23776;51.592;7.180;2023-03-03T17:07:48;38.47;;;14.75;;
37955;SDS011;23776;51.592;7.180;2023-03-03T17:10:25;42.38;;;14.07;;
37955;SDS011;23776;51.592;7.180;2023-03-03T17:21:00;47.47;;;15.00;;
37955;SDS011;23776;51.592;7.180;2023-03-03T17:29:11;39.97;;;15.43;;
37955;SDS011;23776;51.592;7.180;2023-03-03T17:45:29;46.85;;;15.30;;
37955;SDS011;23776;51.592;7.180;2023-03-03T17:56:38;41.55;;;15.38;;
37955;SDS011;23776;51.592;7.180;2023-03-03T17:59:22;44.38;;;15.35;;
37955;SDS011;23776;51.592;7.180;2023-03-03T18:15:57;44.97;;;16.00;;
37955;SDS011;23776;51.592;7.180;2023-03-03T18:18:43;45.95;;;16.20;;
37955;SDS011;23776;51.592;7.180;2023-03-03T18:21:15;45.92;;;16.02;;
37955;SDS011;23776;51.592;7.180;2023-03-03T18:23:47;40.58;;;15.90;;
37955;SDS011;23776;51.592;7.180;2023-03-03T18:36:52;54.08;;;21.05;;
37955;SDS011;23776;51.592;7.180;2023-03-03T18:44:41;57.50;;;18.25;;
37955;SDS011;23776;51.592;7.180;2023-03-03T18:47:11;52.38;;;19.67;;
37955;SDS011;23776;51.592;7.180;2023-03-03T18:53:04;64.07;;;22.35;;
37955;SDS011;23776;51.592;7.180;2023-03-03T18:55:53;62.75;;;22.35;;
37955;SDS011;23776;51.592;7.180;2023-03-03T19:05:54;62.88;;;22.13;;
37955;SDS011;23776;51.592;7.180;2023-03-03T19:08:30;61.80;;;20.40;;
37955;SDS011;23776;51.592;7.180;2023-03-03T19:11:32;61.15;;;22.67;;
37955;SDS011;23776;51.592;7.180;2023-03-03T19:16:56;54.40;;;21.17;;
37955;SDS011;23776;51.592;7.180;2023-03-03T19:19:24;64.60;;;21.85;;
37955;SDS011;23776;51.592;7.180;2023-03-03T19:25:00;48.63;;;19.75;;
37955;SDS011;23776;51.592;7.180;2023-03-03T19:30:52;52.15;;;18.83;;
37955;SDS011;23776;51.592;7.180;2023-03-03T19:39:01;54.95;;;20.50;;
37955;SDS011;23776;51.592;7.180;2023-03-03T19:47:20;49.92;;;19.70;;
37955;SDS011;23776;51.592;7.180;2023-03-03T19:50:19;51.35;;;19.70;;
37955;SDS011;23776;51.592;7.180;2023-03-03T19:53:06;44.88;;;19.08;;
37955;SDS011;23776;51.592;7.180;2023-03-03T20:04:22;49.58;;;18.98;;
37955;SDS011;23776;51.592;7.180;2023-03-03T20:10:36;52.70;;;19.30;;
37955;SDS011;23776;51.592;7.180;2023-03-03T20:13:23;50.78;;;18.42;;
37955;SDS011;23776;51.592;7.180;2023-03-03T20:18:57;52.90;;;18.35;;
37955;SDS011;23776;51.592;7.180;2023-03-03T20:21:47;51.15;;;19.52;;
37955;SDS011;23776;51.592;7.180;2023-03-03T20:27:23;57.70;;;19.45;;
37955;SDS011;23776;51.592;7.180;2023-03-03T20:29:56;58.22;;;20.92;;
37955;SDS011;23776;51.592;7.180;2023-03-03T20:41:01;50.55;;;19.35;;
37955;SDS011;23776;51.592;7.180;2023-03-03T20:54:05;54.95;;;19.85;;
37955;SDS011;23776;51.592;7.180;2023-03-03T20:59:17;57.33;;;20.27;;
37955;SDS011;23776;51.592;7.180;2023-03-03T21:04:45;59.38;;;21.10;;
37955;SDS011;23776;51.592;7.180;2023-03-03T21:07:25;52.08;;;19.88;;